Time;durP1;ratioP1;P1;durP2;ratioP2;P2;SDS_P1;SDS_P2;PMS_P1;PMS_P2;Temp;Humidity;BMP_temperature;BMP_pressure;BME280_temperature;BME280_humidity;BME280_pressure;Samples;Min_cycle;Max_cycle;Signal;HPM_P1;HPM_P2
2023/07/12 00:02:31;;;;;;;4.53;1.30;;;;;;;;;;4973104;28;20222;-81
2023/07/12 00:05:36;;;;;;;3.80;1.47;;;;;;;;;;4983751;28;20632;-81
2023/07/12 00:08:43;;;;;;;4.30;1.37;;;;;;;;;;4995395;28;20182;-81
2023/07/12 00:11:47;;;;;;;2.93;1.50;;;;;;;;;;4973182;28;20530;-81
2023/07/12 00:14:51;;;;;;;5.20;1.40;;;;;;;;;;4984120;28;20182;-81
2023/07/12 00:17:55;;;;;;;2.50;1.50;;;;;;;;;;4984237;28;20186;-81
2023/07/12 00:20:59;;;;;;;2.77;1.20;;;;;;;;;;4996109;28;20178;-81
2023/07/12 00:24:04;;;;;;;3.33;1.33;;;;;;;;;;4995301;28;20214;-81
2023/07/12 00:27:09;;;;;;;3.10;1.33;;;;;;;;;;4984130;28;20186;-81
2023/07/12 00:30:15;;;;;;;3.70;1.40;;;;;;;;;;4984120;28;20186;-81
2023/07/12 00:33:20;;;;;;;2.73;1.60;;;;;;;;;;4972684;28;20221;-82
2023/07/12 00:36:26;;;;;;;3.83;1.50;;;;;;;;;;4995009;28;20174;-81
2023/07/12 00:39:32;;;;;;;4.27;1.60;;;;;;;;;;4983693;28;20210;-81
2023/07/12 00:42:40;;;;;;;5.40;1.53;;;;;;;;;;4983299;28;20213;-81
2023/07/12 00:45:46;;;;;;;6.50;1.60;;;;;;;;;;4972431;28;20186;-81
2023/07/12 00:48:50;;;;;;;3.67;1.57;;;;;;;;;;4972678;28;20178;-81
2023/07/12 00:52:13;;;;;;;2.97;1.67;;;;;;;;;;4972229;28;20182;-81
2023/07/12 00:55:55;;;;;;;4.70;1.60;;;;;;;;;;4994998;28;20183;-82
2023/07/12 00:59:24;;;;;;;4.27;1.60;;;;;;;;;;4994658;28;20550;-81
2023/07/12 01:02:29;;;;;;;11.70;1.50;;;;;;;;;;4972264;28;20554;-81
2023/07/12 01:05:35;;;;;;;4.00;1.63;;;;;;;;;;4994545;28;20186;-81
2023/07/12 01:08:43;;;;;;;1.77;1.50;;;;;;;;;;4972499;28;20182;-81
2023/07/12 01:11:47;;;;;;;5.40;1.73;;;;;;;;;;4995039;28;20542;-82
2023/07/12 01:14:51;;;;;;;3.87;1.63;;;;;;;;;;4983239;28;20198;-82
2023/07/12 01:17:55;;;;;;;3.30;1.60;;;;;;;;;;4971800;28;20645;-82
2023/07/12 01:21:23;;;;;;;2.67;1.77;;;;;;;;;;4982979;28;20637;-82
2023/07/12 01:24:30;;;;;;;3.80;1.77;;;;;;;;;;4982681;28;20178;-81
2023/07/12 01:27:35;;;;;;;5.80;1.77;;;;;;;;;;4982649;28;20174;-81
2023/07/12 01:30:39;;;;;;;5.00;1.50;;;;;;;;;;4982590;28;20622;-82
2023/07/12 01:33:44;;;;;;;4.40;1.53;;;;;;;;;;4993553;28;20247;-82
2023/07/12 01:36:48;;;;;;;2.07;1.40;;;;;;;;;;4971047;28;20190;-82
2023/07/12 01:39:53;;;;;;;2.23;1.50;;;;;;;;;;4982331;28;20226;-82
2023/07/12 01:42:58;;;;;;;4.03;1.70;;;;;;;;;;4971596;28;20222;-80
2023/07/12 01:46:02;;;;;;;3.70;1.77;;;;;;;;;;4982216;28;20182;-81
2023/07/12 01:49:06;;;;;;;3.90;1.60;;;;;;;;;;4982564;28;20487;-81
2023/07/12 01:52:11;;;;;;;5.50;1.93;;;;;;;;;;4982330;28;20214;-82
2023/07/12 01:55:15;;;;;;;3.40;1.90;;;;;;;;;;4982123;28;20198;-82
2023/07/12 01:58:20;;;;;;;4.27;1.50;;;;;;;;;;4970698;28;20206;-82
2023/07/12 02:01:24;;;;;;;4.00;1.77;;;;;;;;;;4993405;28;20182;-82
2023/07/12 02:04:28;;;;;;;5.13;1.73;;;;;;;;;;4981801;28;20194;-82
2023/07/12 02:07:32;;;;;;;3.30;1.67;;;;;;;;;;4970825;28;20178;-81
2023/07/12 02:10:37;;;;;;;2.47;1.60;;;;;;;;;;4982232;28;20577;-81
2023/07/12 02:13:42;;;;;;;4.40;1.80;;;;;;;;;;4992682;28;20225;-81
2023/07/12 02:16:46;;;;;;;3.93;1.83;;;;;;;;;;4993139;28;20178;-81
2023/07/12 02:19:50;;;;;;;2.17;1.67;;;;;;;;;;4971035;28;20206;-81
2023/07/12 02:22:56;;;;;;;2.87;1.80;;;;;;;;;;4970788;28;20213;-81
2023/07/12 02:26:00;;;;;;;3.13;1.83;;;;;;;;;;4981836;28;20526;-81
2023/07/12 02:29:04;;;;;;;3.23;1.90;;;;;;;;;;4984895;28;20178;-81
2023/07/12 02:32:09;;;;;;;3.37;1.97;;;;;;;;;;4997514;28;20178;-81
2023/07/12 02:35:13;;;;;;;3.47;2.07;;;;;;;;;;4996889;28;20174;-81
2023/07/12 02:38:17;;;;;;;5.77;2.50;;;;;;;;;;4975493;28;20178;-82
2023/07/12 02:41:21;;;;;;;3.27;2.40;;;;;;;;;;4998196;28;20178;-82
2023/07/12 02:44:25;;;;;;;8.30;2.67;;;;;;;;;;4998890;28;20183;-82
2023/07/12 02:47:29;;;;;;;9.60;2.83;;;;;;;;;;4997981;28;20201;-82
2023/07/12 02:50:33;;;;;;;6.57;2.30;;;;;;;;;;4998508;28;20190;-81
2023/07/12 02:53:37;;;;;;;8.10;2.87;;;;;;;;;;4986214;28;20222;-82
2023/07/12 02:56:42;;;;;;;3.27;2.60;;;;;;;;;;4997448;28;20205;-81
2023/07/12 02:59:46;;;;;;;4.77;2.40;;;;;;;;;;4986205;28;20210;-82
2023/07/12 03:02:50;;;;;;;7.00;2.87;;;;;;;;;;4996925;28;20214;-82
2023/07/12 03:05:54;;;;;;;4.63;2.90;;;;;;;;;;4996887;28;20186;-81
2023/07/12 03:08:58;;;;;;;3.23;2.70;;;;;;;;;;4985911;28;20182;-81
2023/07/12 03:12:03;;;;;;;7.57;3.00;;;;;;;;;;4973835;28;20190;-81
2023/07/12 03:15:08;;;;;;;6.27;2.73;;;;;;;;;;4974100;28;20190;-81
2023/07/12 03:18:12;;;;;;;8.63;2.90;;;;;;;;;;4996365;28;20178;-81
2023/07/12 03:21:16;;;;;;;9.53;3.27;;;;;;;;;;4985062;28;20182;-81
2023/07/12 03:24:20;;;;;;;4.07;2.40;;;;;;;;;;4996323;28;20182;-81
2023/07/12 03:27:25;;;;;;;4.60;2.70;;;;;;;;;;4974042;28;20182;-82
2023/07/12 03:30:29;;;;;;;4.00;2.50;;;;;;;;;;4985399;28;20187;-81
2023/07/12 03:33:34;;;;;;;7.93;2.83;;;;;;;;;;4973820;28;20673;-81
2023/07/12 03:36:39;;;;;;;5.77;2.60;;;;;;;;;;4984618;28;20198;-82
2023/07/12 03:39:43;;;;;;;5.97;2.70;;;;;;;;;;4994718;28;20206;-81
2023/07/12 03:42:47;;;;;;;3.23;2.30;;;;;;;;;;4973494;28;20213;-87
2023/07/12 03:45:52;;;;;;;4.33;2.13;;;;;;;;;;4984681;28;20178;-87
2023/07/12 03:48:56;;;;;;;6.03;2.67;;;;;;;;;;4973896;28;20617;-87
2023/07/12 03:52:00;;;;;;;5.17;2.60;;;;;;;;;;4984484;28;20178;-87
2023/07/12 03:55:05;;;;;;;4.20;2.17;;;;;;;;;;4973566;28;20220;-87
2023/07/12 03:58:12;;;;;;;4.67;2.30;;;;;;;;;;4973179;28;20182;-88
2023/07/12 04:01:18;;;;;;;4.10;2.50;;;;;;;;;;4984353;28;20202;-88
2023/07/12 04:04:22;;;;;;;5.80;2.57;;;;;;;;;;4984444;28;20178;-88
2023/07/12 04:07:26;;;;;;;7.13;2.10;;;;;;;;;;4972241;28;20201;-87
2023/07/12 04:10:31;;;;;;;6.77;2.70;;;;;;;;;;4973085;28;20201;-87
2023/07/12 04:13:35;;;;;;;4.33;2.10;;;;;;;;;;4972211;28;20242;-88
2023/07/12 04:16:39;;;;;;;4.60;2.40;;;;;;;;;;4983910;28;20178;-88
2023/07/12 04:19:44;;;;;;;4.67;2.70;;;;;;;;;;4995250;28;20205;-88
2023/07/12 04:22:52;;;;;;;4.30;2.20;;;;;;;;;;4989805;28;20221;-88
2023/07/12 04:25:58;;;;;;;4.57;2.33;;;;;;;;;;4972891;28;20190;-87
2023/07/12 04:29:02;;;;;;;8.67;2.63;;;;;;;;;;4983727;28;20174;-88
2023/07/12 04:32:07;;;;;;;4.80;2.53;;;;;;;;;;4975109;28;20178;-88
2023/07/12 04:35:11;;;;;;;3.83;2.37;;;;;;;;;;4983865;28;20522;-88
2023/07/12 04:38:15;;;;;;;2.97;2.57;;;;;;;;;;4963732;28;20210;-88
2023/07/12 04:41:19;;;;;;;5.60;2.47;;;;;;;;;;4975184;28;20219;-88
2023/07/12 04:44:25;;;;;;;5.47;2.50;;;;;;;;;;4975166;28;20179;-88
2023/07/12 04:47:29;;;;;;;4.27;2.33;;;;;;;;;;4952839;28;20199;-88
2023/07/12 04:50:34;;;;;;;4.10;2.60;;;;;;;;;;4963376;28;20547;-88
2023/07/12 04:53:38;;;;;;;7.47;2.73;;;;;;;;;;4963811;28;20686;-87
2023/07/12 04:56:42;;;;;;;6.73;3.13;;;;;;;;;;4975648;28;20630;-88
2023/07/12 04:59:47;;;;;;;4.80;2.53;;;;;;;;;;4986771;28;20211;-88
2023/07/12 05:02:53;;;;;;;10.10;2.73;;;;;;;;;;4974882;28;20215;-88
2023/07/12 05:05:58;;;;;;;7.17;3.00;;;;;;;;;;4952362;28;20251;-88
2023/07/12 05:09:03;;;;;;;6.47;2.43;;;;;;;;;;4974167;28;20210;-88
2023/07/12 05:12:07;;;;;;;8.63;3.00;;;;;;;;;;4982996;28;20515;-88
2023/07/12 05:15:12;;;;;;;5.27;2.30;;;;;;;;;;4983116;28;20183;-88
2023/07/12 05:18:16;;;;;;;5.53;2.50;;;;;;;;;;4971709;28;20178;-88
2023/07/12 05:21:23;;;;;;;23.30;3.37;;;;;;;;;;4971852;28;20206;-88
2023/07/12 05:24:27;;;;;;;7.07;3.00;;;;;;;;;;4982644;28;20185;-88
2023/07/12 05:27:32;;;;;;;21.97;4.07;;;;;;;;;;4972067;28;20182;-88
2023/07/12 05:30:36;;;;;;;7.83;2.93;;;;;;;;;;4971317;28;20182;-87
2023/07/12 05:33:43;;;;;;;5.17;2.50;;;;;;;;;;4971416;28;20217;-87
2023/07/12 05:36:47;;;;;;;8.70;3.20;;;;;;;;;;4971564;28;20182;-88
2023/07/12 05:39:51;;;;;;;5.80;2.30;;;;;;;;;;4971756;28;20186;-88
2023/07/12 05:42:56;;;;;;;7.63;2.80;;;;;;;;;;4982598;28;20217;-88
2023/07/12 05:46:01;;;;;;;7.27;2.97;;;;;;;;;;4982157;28;20186;-87
2023/07/12 05:49:05;;;;;;;6.87;2.80;;;;;;;;;;4982558;28;20182;-88
2023/07/12 05:52:09;;;;;;;4.77;2.67;;;;;;;;;;4981959;28;20177;-87
2023/07/12 05:55:17;;;;;;;4.50;2.40;;;;;;;;;;4982357;28;20621;-88
2023/07/12 05:58:22;;;;;;;4.33;2.27;;;;;;;;;;4982083;28;20193;-87
2023/07/12 06:01:26;;;;;;;5.20;2.60;;;;;;;;;;4993220;28;20214;-88
2023/07/12 06:04:30;;;;;;;5.67;2.40;;;;;;;;;;4993178;28;20182;-88
2023/07/12 06:07:34;;;;;;;4.27;2.43;;;;;;;;;;4977416;28;20202;-87
2023/07/12 06:10:39;;;;;;;4.80;2.70;;;;;;;;;;4993718;28;20178;-87
2023/07/12 06:13:43;;;;;;;4.57;2.80;;;;;;;;;;4984976;28;20225;-81
2023/07/12 06:16:47;;;;;;;8.00;3.10;;;;;;;;;;4996563;28;20182;-81
2023/07/12 06:19:51;;;;;;;5.37;2.93;;;;;;;;;;4995781;28;20634;-81
2023/07/12 06:22:57;;;;;;;5.63;2.97;;;;;;;;;;4993845;28;20221;-85
2023/07/12 06:26:02;;;;;;;4.77;2.60;;;;;;;;;;4970695;28;20198;-85
2023/07/12 06:29:06;;;;;;;7.40;3.30;;;;;;;;;;4971028;28;20192;-85
2023/07/12 06:32:10;;;;;;;6.43;3.40;;;;;;;;;;4970664;28;20522;-85
2023/07/12 06:35:15;;;;;;;7.33;3.70;;;;;;;;;;4970894;28;20182;-85
2023/07/12 06:38:21;;;;;;;5.67;3.10;;;;;;;;;;4962237;28;20198;-85
2023/07/12 06:41:25;;;;;;;8.03;3.30;;;;;;;;;;4973317;28;20222;-85
2023/07/12 06:44:29;;;;;;;4.87;2.77;;;;;;;;;;4962744;28;20179;-85
2023/07/12 06:47:33;;;;;;;10.73;3.50;;;;;;;;;;4984745;28;20187;-85
2023/07/12 06:50:38;;;;;;;5.53;2.87;;;;;;;;;;4962472;28;20186;-85
2023/07/12 06:53:42;;;;;;;6.17;3.50;;;;;;;;;;4973526;28;20219;-85
2023/07/12 06:56:48;;;;;;;6.60;2.80;;;;;;;;;;4962626;28;20186;-85
2023/07/12 06:59:52;;;;;;;3.70;2.77;;;;;;;;;;4973655;28;20187;-85
2023/07/12 07:02:56;;;;;;;7.60;3.30;;;;;;;;;;4962051;28;20237;-84
2023/07/12 07:06:00;;;;;;;6.93;2.83;;;;;;;;;;4981765;28;20673;-85
2023/07/12 07:09:05;;;;;;;6.30;3.00;;;;;;;;;;4981280;28;20194;-85
2023/07/12 07:12:09;;;;;;;7.77;2.70;;;;;;;;;;4972399;28;20198;-80
2023/07/12 07:15:13;;;;;;;8.57;3.70;;;;;;;;;;4985852;28;20182;-81
2023/07/12 07:18:18;;;;;;;4.67;3.00;;;;;;;;;;4986290;28;20542;-81
2023/07/12 07:21:22;;;;;;;6.87;3.13;;;;;;;;;;4987498;28;20229;-81
2023/07/12 07:24:26;;;;;;;7.83;3.47;;;;;;;;;;4998381;28;20186;-81
2023/07/12 07:27:30;;;;;;;6.37;3.10;;;;;;;;;;4986875;28;20637;-80
2023/07/12 07:30:34;;;;;;;6.40;3.03;;;;;;;;;;4986282;28;20174;-81
2023/07/12 07:33:40;;;;;;;6.40;3.10;;;;;;;;;;4986230;28;20209;-81
2023/07/12 07:36:44;;;;;;;4.43;2.97;;;;;;;;;;4974779;28;20190;-80
2023/07/12 07:39:48;;;;;;;7.60;3.27;;;;;;;;;;4977316;28;20187;-80
2023/07/12 07:42:55;;;;;;;8.00;3.13;;;;;;;;;;4965293;28;20214;-80
2023/07/12 07:45:59;;;;;;;4.17;2.97;;;;;;;;;;4966826;28;20183;-81
2023/07/12 07:49:03;;;;;;;8.93;2.97;;;;;;;;;;4966126;28;20642;-81
2023/07/12 07:52:07;;;;;;;7.27;3.20;;;;;;;;;;4976546;28;20171;-81
2023/07/12 07:55:14;;;;;;;5.40;3.13;;;;;;;;;;4988291;28;20179;-81
2023/07/12 07:58:19;;;;;;;11.47;3.60;;;;;;;;;;4965685;28;20179;-80
2023/07/12 08:01:23;;;;;;;9.50;3.20;;;;;;;;;;4976705;28;20203;-81
2023/07/12 08:04:28;;;;;;;7.80;3.10;;;;;;;;;;4987907;28;20183;-81
2023/07/12 08:07:40;;;;;;;9.70;3.20;;;;;;;;;;4964986;28;20658;-81
2023/07/12 08:10:47;;;;;;;6.53;3.07;;;;;;;;;;4965928;28;20179;-81
2023/07/12 08:13:51;;;;;;;5.10;2.87;;;;;;;;;;4964945;28;20235;-84
2023/07/12 08:16:56;;;;;;;6.53;3.10;;;;;;;;;;4976522;28;20186;-83
2023/07/12 08:20:00;;;;;;;7.30;3.00;;;;;;;;;;4976623;28;20187;-87
2023/07/12 08:23:04;;;;;;;6.60;2.90;;;;;;;;;;4953329;28;20706;-86
2023/07/12 08:26:09;;;;;;;11.77;3.17;;;;;;;;;;4952539;28;20539;-88
2023/07/12 08:29:13;;;;;;;5.80;2.50;;;;;;;;;;4964246;28;20211;-88
2023/07/12 08:32:20;;;;;;;7.73;2.80;;;;;;;;;;4953111;28;20212;-88
2023/07/12 08:35:24;;;;;;;8.77;2.40;;;;;;;;;;4975480;28;20182;-88
2023/07/12 08:38:31;;;;;;;8.03;2.80;;;;;;;;;;4975024;28;20676;-87
2023/07/12 08:41:38;;;;;;;6.97;3.05;;;;;;;;;;4953368;28;20277;-81
2023/07/12 08:44:42;;;;;;;7.95;2.58;;;;;;;;;;4975535;28;20178;-82
2023/07/12 08:47:48;;;;;;;7.40;2.42;;;;;;;;;;4964167;28;20666;-81
2023/07/12 08:50:52;;;;;;;5.63;2.55;;;;;;;;;;4964148;28;20191;-82
2023/07/12 08:53:57;;;;;;;2.83;2.15;;;;;;;;;;4953137;28;20225;-82
2023/07/12 08:57:15;;;;;;;4.18;2.28;;;;;;;;;;4963940;28;20181;-82
2023/07/12 09:00:22;;;;;;;5.85;2.28;;;;;;;;;;4953044;28;20176;-82
2023/07/12 09:03:26;;;;;;;5.78;2.20;;;;;;;;;;4975084;28;20561;-82
2023/07/12 09:06:31;;;;;;;5.85;2.33;;;;;;;;;;4963822;28;20665;-82
2023/07/12 09:09:38;;;;;;;6.03;2.65;;;;;;;;;;4963524;28;20547;-81
2023/07/12 09:12:42;;;;;;;8.63;2.50;;;;;;;;;;4952377;28;20561;-82
2023/07/12 09:15:50;;;;;;;5.97;2.60;;;;;;;;;;4974641;28;20175;-81
2023/07/12 09:18:58;;;;;;;7.28;1.95;;;;;;;;;;4977855;28;20542;-82
2023/07/12 09:22:16;;;;;;;6.15;2.60;;;;;;;;;;4982859;28;20690;-82
2023/07/12 09:25:23;;;;;;;8.95;2.38;;;;;;;;;;4971923;28;20189;-82
2023/07/12 09:28:37;;;;;;;6.50;2.58;;;;;;;;;;4998466;23;20234;-87
2023/07/12 09:31:44;;;;;;;7.13;2.30;;;;;;;;;;4952683;28;20640;-87
2023/07/12 09:34:50;;;;;;;8.27;2.67;;;;;;;;;;4952658;28;20226;-87
2023/07/12 09:38:00;;;;;;;5.43;2.20;;;;;;;;;;4952475;28;20225;-87
2023/07/12 09:41:18;;;;;;;5.32;2.13;;;;;;;;;;4963594;28;20193;-88
2023/07/12 09:44:22;;;;;;;6.18;2.47;;;;;;;;;;4963490;28;20193;-87
2023/07/12 09:47:45;;;;;;;6.63;2.80;;;;;;;;;;4963070;28;20822;-87
2023/07/12 09:51:20;;;;;;;7.07;2.65;;;;;;;;;;4974537;28;20183;-87
2023/07/12 09:54:43;;;;;;;6.78;3.10;;;;;;;;;;4952374;28;20191;-87
2023/07/12 09:58:11;;;;;;;6.10;3.10;;;;;;;;;;4963180;28;20215;-87
2023/07/12 10:01:43;;;;;;;6.25;3.13;;;;;;;;;;4952132;28;20211;-87
2023/07/12 10:04:52;;;;;;;6.05;2.67;;;;;;;;;;4952348;28;20179;-87
2023/07/12 10:08:03;;;;;;;5.90;2.90;;;;;;;;;;4952078;28;20215;-87
2023/07/12 10:11:26;;;;;;;5.97;3.05;;;;;;;;;;4963528;28;20191;-88
2023/07/12 10:14:36;;;;;;;5.45;3.13;;;;;;;;;;4963291;28;20188;-88
2023/07/12 10:17:46;;;;;;;6.15;3.22;;;;;;;;;;4950552;28;20222;-87
2023/07/12 10:20:57;;;;;;;6.55;3.13;;;;;;;;;;4942847;28;20199;-88
2023/07/12 10:24:38;;;;;;;7.30;3.60;;;;;;;;;;4973929;28;20199;-88
2023/07/12 10:27:52;;;;;;;7.50;3.17;;;;;;;;;;4951633;28;20567;-88
2023/07/12 10:31:08;;;;;;;10.82;3.42;;;;;;;;;;4974011;28;20187;-88
2023/07/12 10:34:22;;;;;;;6.28;2.70;;;;;;;;;;4963265;28;20210;-88
2023/07/12 10:42:42;;;;;;;8.85;3.45;;;;;;;;;;4976125;28;20215;-88
2023/07/12 10:45:49;;;;;;;7.65;3.13;;;;;;;;;;4951605;28;20179;-88
2023/07/12 10:48:54;;;;;;;4.57;2.97;;;;;;;;;;4952938;28;20172;-88
2023/07/12 10:52:09;;;;;;;9.38;3.20;;;;;;;;;;4966243;28;20626;-88
2023/07/12 10:55:36;;;;;;;5.82;3.20;;;;;;;;;;4977568;28;20184;-88
2023/07/12 10:58:50;;;;;;;5.50;2.92;;;;;;;;;;4977800;28;20180;-89
2023/07/12 11:01:55;;;;;;;6.40;3.20;;;;;;;;;;4954962;28;20211;-88
2023/07/12 11:04:59;;;;;;;5.05;3.13;;;;;;;;;;4966363;28;20180;-88
2023/07/12 11:08:05;;;;;;;6.82;3.50;;;;;;;;;;4954964;28;20694;-88
2023/07/12 11:11:09;;;;;;;7.00;3.50;;;;;;;;;;4966310;28;20199;-88
2023/07/12 11:14:19;;;;;;;4.57;3.15;;;;;;;;;;4966268;28;20180;-88
2023/07/12 11:17:29;;;;;;;6.97;3.47;;;;;;;;;;4954858;28;20226;-89
2023/07/12 11:20:59;;;;;;;9.63;3.67;;;;;;;;;;4956178;28;20179;-89
2023/07/12 11:24:25;;;;;;;5.20;3.10;;;;;;;;;;4966028;28;20179;-89
2023/07/12 11:27:40;;;;;;;5.78;3.15;;;;;;;;;;4965722;28;20227;-89
2023/07/12 11:30:44;;;;;;;13.90;3.83;;;;;;;;;;4976894;28;20530;-87
2023/07/12 11:34:14;;;;;;;11.98;3.35;;;;;;;;;;4977006;28;20191;-88
2023/07/12 11:37:44;;;;;;;9.43;3.65;;;;;;;;;;4966045;28;20229;-88
2023/07/12 11:40:51;;;;;;;6.80;3.20;;;;;;;;;;4954679;28;20634;-88
2023/07/12 11:44:13;;;;;;;7.63;3.40;;;;;;;;;;4954754;28;20184;-88
2023/07/12 11:47:21;;;;;;;7.50;3.55;;;;;;;;;;4965568;28;20235;-88
2023/07/12 11:50:30;;;;;;;5.03;3.50;;;;;;;;;;4965541;28;20180;-88
2023/07/12 11:53:35;;;;;;;7.75;3.70;;;;;;;;;;4954335;28;20175;-89
2023/07/12 11:56:44;;;;;;;7.95;3.50;;;;;;;;;;4954421;28;20558;-88
2023/07/12 11:59:52;;;;;;;5.25;3.47;;;;;;;;;;4975857;28;20634;-89
2023/07/12 12:03:04;;;;;;;6.30;3.70;;;;;;;;;;4971460;28;20216;-87
2023/07/12 12:06:13;;;;;;;11.07;3.92;;;;;;;;;;4954231;28;20191;-89
2023/07/12 12:09:25;;;;;;;5.47;3.17;;;;;;;;;;4954323;28;20657;-88
2023/07/12 12:12:32;;;;;;;6.20;3.45;;;;;;;;;;4953975;28;20187;-88
2023/07/12 12:15:44;;;;;;;5.95;3.65;;;;;;;;;;4954028;28;20347;-88
2023/07/12 12:18:57;;;;;;;8.10;3.42;;;;;;;;;;4946054;29;20632;-88
2023/07/12 12:22:15;;;;;;;4.72;3.63;;;;;;;;;;4945870;29;20215;-88
2023/07/12 12:25:23;;;;;;;7.00;3.67;;;;;;;;;;4946393;29;20244;-88
2023/07/12 12:28:31;;;;;;;7.47;3.35;;;;;;;;;;4957325;29;20227;-88
2023/07/12 12:31:48;;;;;;;6.38;3.90;;;;;;;;;;4956992;29;20199;-87
2023/07/12 12:34:54;;;;;;;11.07;4.38;;;;;;;;;;4945953;29;20188;-87
2023/07/12 12:38:18;;;;;;;5.80;3.60;;;;;;;;;;4967423;28;20223;-88
2023/07/12 12:41:23;;;;;;;5.22;3.65;;;;;;;;;;4956775;29;20188;-87
2023/07/12 12:44:35;;;;;;;6.85;3.67;;;;;;;;;;4945282;29;20176;-88
2023/07/12 12:47:40;;;;;;;9.38;4.68;;;;;;;;;;4980789;28;20227;-87
2023/07/12 12:50:44;;;;;;;9.27;4.22;;;;;;;;;;4964931;28;20178;-87
2023/07/12 12:53:48;;;;;;;6.88;4.10;;;;;;;;;;4964985;28;20191;-87
2023/07/12 12:56:54;;;;;;;6.43;4.05;;;;;;;;;;4964287;28;20225;-87
2023/07/12 13:00:03;;;;;;;12.25;4.90;;;;;;;;;;4953339;28;20184;-87
2023/07/12 13:03:13;;;;;;;9.07;4.15;;;;;;;;;;4952133;28;20229;-87
2023/07/12 13:06:19;;;;;;;7.03;4.40;;;;;;;;;;4952955;28;20181;-87
2023/07/12 13:09:24;;;;;;;10.02;4.95;;;;;;;;;;4953221;28;20649;-87
2023/07/12 13:12:30;;;;;;;8.10;4.68;;;;;;;;;;4952922;28;20196;-86
2023/07/12 13:16:21;;;;;;;11.10;4.85;;;;;;;;;;4963643;28;20654;-92
2023/07/12 13:19:28;;;;;;;9.02;4.75;;;;;;;;;;4935898;29;20578;-72
2023/07/12 13:22:32;;;;;;;8.10;4.88;;;;;;;;;;4936461;29;20225;-72
2023/07/12 13:25:40;;;;;;;8.05;5.07;;;;;;;;;;4936206;29;20670;-72
2023/07/12 13:28:44;;;;;;;6.60;4.90;;;;;;;;;;4936459;29;20207;-72
2023/07/12 13:31:49;;;;;;;6.75;4.80;;;;;;;;;;4936340;29;20216;-72
2023/07/12 13:34:54;;;;;;;8.95;4.80;;;;;;;;;;4947125;29;20183;-72
2023/07/12 13:37:58;;;;;;;8.00;5.68;;;;;;;;;;4946598;29;20205;-72
2023/07/12 13:41:02;;;;;;;11.07;5.40;;;;;;;;;;4936348;29;20574;-72
2023/07/12 13:44:09;;;;;;;11.20;5.93;;;;;;;;;;4936179;29;20580;-72
2023/07/12 13:47:15;;;;;;;9.40;5.82;;;;;;;;;;4936427;29;20187;-72
2023/07/12 13:50:19;;;;;;;9.83;6.13;;;;;;;;;;4936352;29;20645;-72
2023/07/12 13:53:24;;;;;;;9.60;6.33;;;;;;;;;;4946329;29;20177;-72
2023/07/12 13:56:28;;;;;;;10.73;5.83;;;;;;;;;;4936478;29;20187;-73
2023/07/12 13:59:32;;;;;;;9.23;5.90;;;;;;;;;;4935860;29;20213;-73
2023/07/12 14:02:37;;;;;;;6.40;4.70;;;;;;;;;;4935680;29;20677;-73
2023/07/12 14:05:41;;;;;;;6.13;4.33;;;;;;;;;;4936131;29;20527;-73
2023/07/12 14:08:47;;;;;;;6.87;4.50;;;;;;;;;;4946531;29;20184;-72
2023/07/12 14:11:52;;;;;;;5.77;4.00;;;;;;;;;;4935736;29;20224;-72
2023/07/12 14:14:57;;;;;;;7.20;3.57;;;;;;;;;;4924308;29;20185;-72
2023/07/12 14:18:01;;;;;;;5.53;3.73;;;;;;;;;;4935710;29;20208;-73
2023/07/12 14:21:17;;;;;;;6.73;3.67;;;;;;;;;;4946334;29;20695;-72
2023/07/12 14:24:21;;;;;;;5.63;3.93;;;;;;;;;;4938545;29;20211;-73
2023/07/12 14:27:27;;;;;;;7.00;3.90;;;;;;;;;;4939926;29;20188;-73
2023/07/12 14:30:32;;;;;;;5.80;4.00;;;;;;;;;;4938805;29;20184;-73
2023/07/12 14:33:35;;;;;;;5.50;4.50;;;;;;;;;;4939894;29;20173;-73
2023/07/12 14:36:39;;;;;;;8.80;4.40;;;;;;;;;;4949753;29;20188;-73
2023/07/12 14:39:44;;;;;;;5.23;3.90;;;;;;;;;;4950246;29;20632;-73
2023/07/12 14:42:48;;;;;;;5.57;3.77;;;;;;;;;;4938841;29;20212;-73
2023/07/12 14:45:53;;;;;;;11.30;4.13;;;;;;;;;;4939106;29;20184;-73
2023/07/12 14:48:57;;;;;;;5.77;4.23;;;;;;;;;;4939945;29;20188;-72
2023/07/12 14:52:01;;;;;;;4.13;3.60;;;;;;;;;;4939554;29;20216;-72
2023/07/12 14:55:11;;;;;;;6.13;3.57;;;;;;;;;;4939051;29;20196;-73
2023/07/12 14:58:16;;;;;;;6.90;3.77;;;;;;;;;;4939621;29;20176;-72
2023/07/12 15:01:24;;;;;;;4.70;3.07;;;;;;;;;;4949211;29;20227;-73
2023/07/12 15:04:28;;;;;;;5.73;3.33;;;;;;;;;;4939183;29;20671;-73
2023/07/12 15:07:35;;;;;;;6.03;3.43;;;;;;;;;;4938056;29;20184;-74
2023/07/12 15:10:39;;;;;;;4.23;2.97;;;;;;;;;;4939211;29;20220;-74
2023/07/12 15:13:43;;;;;;;4.57;2.90;;;;;;;;;;4939067;29;20181;-74
2023/07/12 15:16:52;;;;;;;4.73;2.70;;;;;;;;;;4949065;29;20207;-74
2023/07/12 15:19:55;;;;;;;3.40;2.60;;;;;;;;;;4938734;29;20188;-73
2023/07/12 15:23:00;;;;;;;4.33;2.70;;;;;;;;;;4938562;29;20211;-74
2023/07/12 15:26:04;;;;;;;4.33;2.47;;;;;;;;;;4948845;29;20204;-72
2023/07/12 15:29:08;;;;;;;3.33;2.60;;;;;;;;;;4938418;29;20199;-73
2023/07/12 15:32:15;;;;;;;5.63;2.87;;;;;;;;;;4948600;29;20223;-73
2023/07/12 15:35:23;;;;;;;5.37;2.90;;;;;;;;;;4938743;29;20509;-73
2023/07/12 15:38:27;;;;;;;5.40;2.63;;;;;;;;;;4937484;29;20208;-72
2023/07/12 15:41:31;;;;;;;5.17;2.73;;;;;;;;;;4994760;23;20716;-70
2023/07/12 15:44:36;;;;;;;4.17;2.63;;;;;;;;;;4996921;28;20202;-72
2023/07/12 15:47:41;;;;;;;3.50;2.40;;;;;;;;;;4996441;28;20186;-71
2023/07/12 15:50:48;;;;;;;7.90;3.03;;;;;;;;;;4996333;28;20222;-72
2023/07/12 15:53:54;;;;;;;5.03;2.90;;;;;;;;;;4996367;28;20179;-72
2023/07/12 15:56:58;;;;;;;7.07;3.00;;;;;;;;;;4995678;28;20187;-72
2023/07/12 16:00:03;;;;;;;3.73;2.47;;;;;;;;;;4995924;28;20198;-71
2023/07/12 16:03:25;;;;;;;5.23;2.90;;;;;;;;;;4995064;28;20333;-71
2023/07/12 16:06:31;;;;;;;8.17;3.10;;;;;;;;;;4996438;28;20187;-72
2023/07/12 16:09:35;;;;;;;4.47;3.33;;;;;;;;;;4996131;28;20186;-72
2023/07/12 16:12:41;;;;;;;5.80;3.13;;;;;;;;;;4994985;28;20225;-72
2023/07/12 16:15:46;;;;;;;4.70;3.00;;;;;;;;;;4996060;28;20182;-72
2023/07/12 16:18:51;;;;;;;7.93;3.80;;;;;;;;;;4995927;28;20178;-71
2023/07/12 16:21:56;;;;;;;6.13;3.90;;;;;;;;;;4983760;28;20546;-72
2023/07/12 16:25:00;;;;;;;6.73;4.13;;;;;;;;;;4994907;28;20222;-72
2023/07/12 16:28:04;;;;;;;4.37;3.50;;;;;;;;;;4983781;28;20190;-72
2023/07/12 16:31:21;;;;;;;8.47;4.13;;;;;;;;;;4994681;28;20221;-72
2023/07/12 16:34:25;;;;;;;9.67;3.93;;;;;;;;;;4996177;28;20175;-72
2023/07/12 16:37:29;;;;;;;7.00;3.73;;;;;;;;;;4995310;28;20186;-71
2023/07/12 16:40:34;;;;;;;5.73;3.80;;;;;;;;;;4995355;28;20202;-72
2023/07/12 16:43:38;;;;;;;5.93;3.90;;;;;;;;;;4994547;28;20210;-72
2023/07/12 16:46:43;;;;;;;5.57;4.67;;;;;;;;;;4993943;28;20187;-72
2023/07/12 16:49:47;;;;;;;5.60;4.47;;;;;;;;;;4994903;28;20198;-72
2023/07/12 16:52:51;;;;;;;10.10;4.63;;;;;;;;;;4995233;28;20202;-72
2023/07/12 16:55:55;;;;;;;7.63;4.63;;;;;;;;;;4994995;28;20194;-72
2023/07/12 16:58:59;;;;;;;7.10;4.47;;;;;;;;;;4995167;28;20182;-71
2023/07/12 17:02:19;;;;;;;6.90;5.20;;;;;;;;;;4995642;28;20690;-71
2023/07/12 17:05:23;;;;;;;4.97;4.10;;;;;;;;;;4995233;28;20178;-70
2023/07/12 17:08:28;;;;;;;9.03;4.10;;;;;;;;;;4994601;28;20194;-71
2023/07/12 17:11:32;;;;;;;6.60;4.27;;;;;;;;;;4994782;28;20213;-70
2023/07/12 17:14:36;;;;;;;5.23;3.83;;;;;;;;;;4994257;28;20170;-71
2023/07/12 17:17:40;;;;;;;4.40;3.40;;;;;;;;;;4994000;28;20178;-71
2023/07/12 17:20:46;;;;;;;6.07;4.50;;;;;;;;;;4994910;28;20225;-70
2023/07/12 17:23:51;;;;;;;5.40;4.00;;;;;;;;;;4994610;28;20206;-71
2023/07/12 17:26:55;;;;;;;5.90;3.80;;;;;;;;;;4993999;28;20178;-71
2023/07/12 17:30:00;;;;;;;4.87;4.10;;;;;;;;;;4993741;28;20280;-72
2023/07/12 17:33:05;;;;;;;5.93;4.30;;;;;;;;;;4994031;28;20190;-72
2023/07/12 17:36:12;;;;;;;4.97;3.77;;;;;;;;;;4994817;28;20182;-72
2023/07/12 17:39:16;;;;;;;6.23;4.20;;;;;;;;;;4985943;28;20565;-72
2023/07/12 17:42:21;;;;;;;8.93;4.57;;;;;;;;;;4974078;28;20227;-71
2023/07/12 17:45:25;;;;;;;10.67;4.87;;;;;;;;;;4973839;28;20210;-71
2023/07/12 17:48:29;;;;;;;9.17;4.13;;;;;;;;;;4975102;28;20204;-72
2023/07/12 17:51:33;;;;;;;7.23;4.37;;;;;;;;;;4973808;28;20225;-73
2023/07/12 17:54:37;;;;;;;7.47;4.10;;;;;;;;;;4975397;28;20180;-72
2023/07/12 17:57:42;;;;;;;5.47;3.60;;;;;;;;;;4973370;28;20190;-73
2023/07/12 18:00:48;;;;;;;6.67;4.30;;;;;;;;;;4973620;28;20218;-72
2023/07/12 18:03:53;;;;;;;8.47;4.20;;;;;;;;;;4963119;28;20539;-73
2023/07/12 18:06:57;;;;;;;8.93;4.60;;;;;;;;;;4974547;28;20183;-72
2023/07/12 18:10:02;;;;;;;5.47;4.27;;;;;;;;;;4973796;28;20198;-73
2023/07/12 18:13:28;;;;;;;10.00;4.27;;;;;;;;;;4974225;28;20206;-73
2023/07/12 18:16:33;;;;;;;9.90;4.30;;;;;;;;;;4973510;28;20655;-72
2023/07/12 18:19:37;;;;;;;6.30;4.70;;;;;;;;;;4974829;28;20179;-72
2023/07/12 18:22:41;;;;;;;10.87;4.57;;;;;;;;;;4973225;28;20213;-72
2023/07/12 18:25:46;;;;;;;6.13;4.93;;;;;;;;;;4974561;28;20229;-72
2023/07/12 18:28:51;;;;;;;5.20;4.23;;;;;;;;;;4973665;28;20182;-75
2023/07/12 18:31:55;;;;;;;6.60;4.27;;;;;;;;;;4973506;28;20214;-73
2023/07/12 18:34:59;;;;;;;7.57;4.63;;;;;;;;;;4973453;28;20214;-73
2023/07/12 18:38:03;;;;;;;6.27;4.20;;;;;;;;;;4974159;28;20198;-73
2023/07/12 18:41:16;;;;;;;8.70;4.23;;;;;;;;;;4972994;28;20230;-73
2023/07/12 18:44:20;;;;;;;5.50;4.20;;;;;;;;;;4974380;28;20555;-73
2023/07/12 18:47:24;;;;;;;7.53;4.60;;;;;;;;;;4973312;28;20183;-73